Time;durP1;ratioP1;P1;durP2;ratioP2;P2;SDS_P1;SDS_P2;PMS_P1;PMS_P2;Temp;Humidity;BMP_temperature;BMP_pressure;BME280_temperature;BME280_humidity;BME280_pressure;Samples;Min_cycle;Max_cycle;Signal;HPM_P1;HPM_P2
2022/05/02 00:01:27;;;;;;;10.88;7.20;;;5.00;74.50;;;;;;5069265;28;20052;-67
2022/05/02 00:03:52;;;;;;;9.90;7.23;;;5.00;74.60;;;;;;5051971;28;20474;-67
2022/05/02 00:06:18;;;;;;;10.30;7.50;;;5.00;74.60;;;;;;5067326;28;20055;-67
2022/05/02 00:08:44;;;;;;;10.43;7.77;;;5.00;74.80;;;;;;5055282;28;20061;-67
2022/05/02 00:11:09;;;;;;;11.33;8.03;;;4.90;74.80;;;;;;5058094;28;20126;-67
2022/05/02 00:13:35;;;;;;;12.73;7.53;;;4.90;74.90;;;;;;5065005;28;20128;-67
2022/05/02 00:16:01;;;;;;;13.07;8.33;;;4.80;75.10;;;;;;5037465;28;20059;-67
2022/05/02 00:18:28;;;;;;;10.93;8.50;;;4.80;75.00;;;;;;5048389;28;20049;-67
2022/05/02 00:20:53;;;;;;;9.88;7.72;;;4.80;74.90;;;;;;5088181;28;20044;-67
2022/05/02 00:23:20;;;;;;;13.03;7.87;;;4.80;75.00;;;;;;5071965;28;20062;-67
2022/05/02 00:25:46;;;;;;;11.25;7.93;;;4.80;75.10;;;;;;5068211;28;20473;-67
2022/05/02 00:28:13;;;;;;;13.50;8.13;;;4.80;75.20;;;;;;5068156;28;20075;-67
2022/05/02 00:30:39;;;;;;;11.27;7.72;;;4.80;75.30;;;;;;5050192;28;20151;-65
2022/05/02 00:33:05;;;;;;;11.27;7.78;;;4.70;75.30;;;;;;5070946;28;20045;-65
2022/05/02 00:35:31;;;;;;;9.67;8.00;;;4.70;75.50;;;;;;5066969;28;20044;-65
2022/05/02 00:37:57;;;;;;;9.37;7.10;;;4.60;75.50;;;;;;5068533;28;20338;-65
2022/05/02 00:40:23;;;;;;;13.85;7.93;;;4.60;75.60;;;;;;5067109;28;20037;-65
2022/05/02 00:42:49;;;;;;;12.10;8.60;;;4.60;75.70;;;;;;5068716;28;20036;-65
2022/05/02 00:45:17;;;;;;;11.70;8.05;;;4.60;76.00;;;;;;5050729;28;20298;-67
2022/05/02 00:47:51;;;;;;;11.60;7.68;;;4.60;75.90;;;;;;5063360;28;20459;-67
2022/05/02 00:50:30;;;;;;;10.90;8.43;;;4.60;75.90;;;;;;5065793;28;20041;-67
2022/05/02 00:52:56;;;;;;;13.40;8.32;;;4.60;76.50;;;;;;5067569;28;20444;-67
2022/05/02 00:55:22;;;;;;;11.60;8.65;;;4.60;76.40;;;;;;5060221;28;20681;-67
2022/05/02 00:57:48;;;;;;;12.57;8.20;;;4.60;76.20;;;;;;5067372;28;20040;-67
2022/05/02 01:00:14;;;;;;;10.77;8.40;;;4.60;76.00;;;;;;5069434;28;20071;-67
2022/05/02 01:02:39;;;;;;;10.60;8.13;;;4.60;76.00;;;;;;5066611;28;20043;-67
2022/05/02 01:05:05;;;;;;;13.73;8.70;;;4.60;76.20;;;;;;5067560;28;20036;-67
2022/05/02 01:07:31;;;;;;;13.30;8.60;;;4.60;76.10;;;;;;5064886;28;20675;-67
2022/05/02 01:09:57;;;;;;;13.17;8.80;;;4.60;76.20;;;;;;5055262;28;20087;-67
2022/05/02 01:12:24;;;;;;;11.85;8.48;;;4.60;76.20;;;;;;5067702;28;20090;-67
2022/05/02 01:14:53;;;;;;;12.50;9.23;;;4.60;76.30;;;;;;5031145;28;20033;-67
2022/05/02 01:17:19;;;;;;;13.65;9.05;;;4.60;76.30;;;;;;5068007;28;20047;-67
2022/05/02 01:19:45;;;;;;;12.90;8.63;;;4.60;76.40;;;;;;5064544;28;20037;-67
2022/05/02 01:22:11;;;;;;;10.88;8.35;;;4.60;76.70;;;;;;5066399;28;20048;-67
2022/05/02 01:24:44;;;;;;;12.93;8.97;;;4.50;76.40;;;;;;5065908;28;20040;-67
2022/05/02 01:27:11;;;;;;;14.57;9.18;;;4.50;76.60;;;;;;5050330;28;20314;-67
2022/05/02 01:29:38;;;;;;;12.85;8.82;;;4.50;76.60;;;;;;5059776;28;20032;-67
2022/05/02 01:32:06;;;;;;;13.80;9.55;;;4.50;76.50;;;;;;5051013;28;20041;-67
2022/05/02 01:34:33;;;;;;;15.77;9.52;;;4.40;76.60;;;;;;5067621;28;20465;-68
2022/05/02 01:37:03;;;;;;;13.40;9.02;;;4.40;76.70;;;;;;5083351;28;20040;-68
2022/05/02 01:39:29;;;;;;;13.32;8.75;;;4.40;76.70;;;;;;5066388;28;20459;-67
2022/05/02 01:41:59;;;;;;;13.90;9.75;;;4.30;76.80;;;;;;5050425;28;20475;-67
2022/05/02 01:44:25;;;;;;;12.77;8.90;;;4.30;76.80;;;;;;5062279;28;20056;-68
2022/05/02 01:46:52;;;;;;;14.13;9.23;;;4.30;76.90;;;;;;5027939;28;20555;-67
2022/05/02 01:49:17;;;;;;;11.52;8.85;;;4.20;77.00;;;;;;5065096;28;20040;-68
2022/05/02 01:51:43;;;;;;;12.23;9.10;;;4.20;77.00;;;;;;5065395;28;20107;-67
2022/05/02 01:54:09;;;;;;;12.43;9.00;;;4.20;77.00;;;;;;5067309;28;20037;-67
2022/05/02 01:56:35;;;;;;;13.73;9.50;;;4.10;77.10;;;;;;5066059;28;20094;-67
2022/05/02 01:59:02;;;;;;;13.60;9.00;;;4.10;77.10;;;;;;5064000;28;20032;-67
2022/05/02 02:01:27;;;;;;;12.68;9.23;;;4.10;77.20;;;;;;5057149;28;20076;-68
2022/05/02 02:03:54;;;;;;;12.93;9.83;;;4.10;77.20;;;;;;5065823;28;20068;-67
2022/05/02 02:06:21;;;;;;;14.82;9.57;;;4.00;77.30;;;;;;5065111;28;20102;-67
2022/05/02 02:08:47;;;;;;;12.10;8.88;;;4.00;77.40;;;;;;5064631;28;20097;-67
2022/05/02 02:11:14;;;;;;;13.07;9.00;;;3.90;77.50;;;;;;5053127;28;20424;-67
2022/05/02 02:13:40;;;;;;;14.15;9.30;;;3.90;77.50;;;;;;5100340;28;20124;-67
2022/05/02 02:16:10;;;;;;;14.20;10.20;;;3.90;77.60;;;;;;5049618;28;20094;-67
2022/05/02 02:18:38;;;;;;;16.27;9.48;;;3.80;77.60;;;;;;5063210;28;20143;-67
2022/05/02 02:21:06;;;;;;;11.93;9.45;;;3.80;77.60;;;;;;5083381;28;20037;-67
2022/05/02 02:23:32;;;;;;;12.48;9.52;;;3.70;77.60;;;;;;5066071;28;20054;-67
2022/05/02 02:25:58;;;;;;;13.00;8.77;;;3.70;77.60;;;;;;5049675;28;20048;-67
2022/05/02 02:28:24;;;;;;;14.73;8.87;;;3.60;77.60;;;;;;5048630;28;20086;-67
2022/05/02 02:30:50;;;;;;;12.70;10.10;;;3.60;77.50;;;;;;5048838;28;20045;-67
2022/05/02 02:33:15;;;;;;;13.23;9.93;;;3.50;77.70;;;;;;5049648;28;20048;-67
2022/05/02 02:35:41;;;;;;;13.93;9.23;;;3.50;77.70;;;;;;5058669;28;20512;-67
2022/05/02 02:38:12;;;;;;;15.23;9.70;;;3.50;77.80;;;;;;5075386;28;20062;-67
2022/05/02 02:40:38;;;;;;;12.48;8.57;;;3.40;77.90;;;;;;5066052;28;20290;-67
2022/05/02 02:43:04;;;;;;;14.68;9.00;;;3.40;77.90;;;;;;5065913;28;20041;-67
2022/05/02 02:45:30;;;;;;;11.37;8.77;;;3.30;77.80;;;;;;5077356;28;20090;-67
2022/05/02 02:47:56;;;;;;;13.13;8.93;;;3.30;77.80;;;;;;5041156;28;20059;-67
2022/05/02 02:50:21;;;;;;;15.33;10.13;;;3.30;77.80;;;;;;5058201;28;20048;-67
2022/05/02 02:52:47;;;;;;;12.10;8.87;;;3.20;77.80;;;;;;5040920;28;20102;-67
2022/05/02 02:55:13;;;;;;;11.90;8.83;;;3.20;77.80;;;;;;5061963;28;20048;-67
2022/05/02 02:57:38;;;;;;;12.40;9.50;;;3.10;77.80;;;;;;5050911;28;20036;-67
2022/05/02 03:00:07;;;;;;;11.00;8.40;;;3.10;77.90;;;;;;5080512;28;20037;-67
2022/05/02 03:02:36;;;;;;;14.85;10.32;;;3.10;78.00;;;;;;5066463;28;20048;-67
2022/05/02 03:07:46;;;;;;;11.48;8.70;;;3.00;78.10;;;;;;5068267;28;20044;-67
2022/05/02 03:10:12;;;;;;;12.60;9.00;;;3.00;78.20;;;;;;5063218;28;20762;-67
2022/05/02 03:12:39;;;;;;;11.85;8.95;;;2.90;78.20;;;;;;5047854;28;20045;-67
2022/05/02 03:15:06;;;;;;;13.52;9.43;;;2.90;78.20;;;;;;5050213;28;20044;-67
2022/05/02 03:17:32;;;;;;;13.13;9.60;;;2.90;78.20;;;;;;5064702;28;20105;-67
2022/05/02 03:19:58;;;;;;;15.43;10.90;;;2.80;78.20;;;;;;5053400;28;20502;-67
2022/05/02 03:22:23;;;;;;;13.00;9.87;;;2.80;78.20;;;;;;5063661;28;20051;-67
2022/05/02 03:24:49;;;;;;;13.33;9.70;;;2.80;78.30;;;;;;5066046;28;20178;-67
2022/05/02 03:27:15;;;;;;;13.73;10.43;;;2.80;78.50;;;;;;5068480;28;20040;-67
2022/05/02 03:29:40;;;;;;;13.93;10.53;;;2.80;78.40;;;;;;5064293;28;20040;-67
2022/05/02 03:32:06;;;;;;;13.50;9.90;;;2.70;78.80;;;;;;5047899;28;20036;-67
2022/05/02 03:34:32;;;;;;;17.50;10.80;;;2.70;78.80;;;;;;5065701;28;20059;-67
2022/05/02 03:36:58;;;;;;;17.37;11.30;;;2.70;78.70;;;;;;5080892;28;20040;-67
2022/05/02 03:39:24;;;;;;;17.30;11.77;;;2.70;78.80;;;;;;5051997;28;20036;-67
2022/05/02 03:41:49;;;;;;;18.10;12.60;;;2.70;78.70;;;;;;5058101;28;20045;-67
2022/05/02 03:44:16;;;;;;;17.40;11.77;;;2.70;78.90;;;;;;5052606;28;20044;-67
2022/05/02 03:46:41;;;;;;;15.00;10.75;;;2.70;79.00;;;;;;5051205;28;20043;-67
2022/05/02 03:49:07;;;;;;;18.73;11.47;;;2.70;79.10;;;;;;5068307;28;20049;-67
2022/05/02 03:51:33;;;;;;;17.50;11.13;;;2.70;79.00;;;;;;5048142;28;20060;-67
2022/05/02 03:53:58;;;;;;;17.73;12.43;;;2.70;79.10;;;;;;5044729;28;20048;-67
2022/05/02 03:56:24;;;;;;;16.60;11.03;;;2.70;79.10;;;;;;5070328;28;20037;-67
2022/05/02 03:58:51;;;;;;;18.37;12.67;;;2.60;79.10;;;;;;5064684;28;20149;-67
2022/05/02 04:01:18;;;;;;;17.48;12.05;;;2.60;79.00;;;;;;5067854;28;20052;-67
2022/05/02 04:03:44;;;;;;;18.13;12.40;;;2.60;79.30;;;;;;5068087;28;20040;-67
2022/05/02 04:06:10;;;;;;;19.33;13.45;;;2.60;79.70;;;;;;5070235;28;20509;-67
2022/05/02 04:08:35;;;;;;;21.50;14.27;;;2.60;79.80;;;;;;5069181;28;20149;-67
2022/05/02 04:11:02;;;;;;;17.23;13.70;;;2.60;80.10;;;;;;5050578;28;20516;-67
2022/05/02 04:13:27;;;;;;;19.85;13.25;;;2.70;80.00;;;;;;5068554;28;20045;-67
2022/05/02 04:15:53;;;;;;;18.97;12.90;;;2.70;79.90;;;;;;5051455;28;20409;-67
2022/05/02 04:18:19;;;;;;;18.07;12.20;;;2.70;79.90;;;;;;5070178;28;20040;-67
2022/05/02 04:20:45;;;;;;;19.13;13.80;;;2.70;79.90;;;;;;5057350;28;20399;-67
2022/05/02 04:23:10;;;;;;;17.10;12.57;;;2.70;79.90;;;;;;5048327;28;20114;-67
2022/05/02 04:25:36;;;;;;;17.23;12.67;;;2.80;80.00;;;;;;5071455;28;20064;-67
2022/05/02 04:28:02;;;;;;;22.00;14.53;;;2.80;80.00;;;;;;5054582;28;20049;-67
2022/05/02 04:30:28;;;;;;;18.10;11.77;;;2.80;80.00;;;;;;5067746;28;20044;-67
2022/05/02 04:32:54;;;;;;;21.93;13.80;;;2.80;80.10;;;;;;5065199;28;20967;-67
2022/05/02 04:35:20;;;;;;;17.87;12.80;;;2.90;80.20;;;;;;5059234;28;20173;-67
2022/05/02 04:37:46;;;;;;;19.35;11.90;;;2.90;80.30;;;;;;5063867;28;20043;-67
2022/05/02 04:40:11;;;;;;;19.93;13.23;;;2.90;80.20;;;;;;5058057;28;20401;-67
2022/05/02 04:42:38;;;;;;;18.83;12.77;;;3.00;80.10;;;;;;5050305;28;20044;-67
2022/05/02 04:45:04;;;;;;;17.55;12.82;;;3.10;80.20;;;;;;5067084;28;20166;-67
2022/05/02 04:47:30;;;;;;;19.92;13.27;;;3.20;80.10;;;;;;5081750;28;20046;-67
2022/05/02 04:49:56;;;;;;;19.20;12.80;;;3.20;80.10;;;;;;5033030;28;20045;-67
2022/05/02 04:52:22;;;;;;;22.33;14.17;;;3.30;80.00;;;;;;5069173;28;20052;-67
2022/05/02 04:54:47;;;;;;;20.07;13.17;;;3.40;80.00;;;;;;5050711;28;20048;-67
2022/05/02 04:57:13;;;;;;;21.67;14.57;;;3.50;80.10;;;;;;5065748;28;20044;-67
2022/05/02 04:59:39;;;;;;;21.23;14.47;;;3.50;80.20;;;;;;5032794;28;20492;-67
2022/05/02 05:02:05;;;;;;;19.90;13.17;;;3.60;80.10;;;;;;5076115;28;20047;-68
2022/05/02 05:04:30;;;;;;;21.38;14.70;;;3.70;80.10;;;;;;5062380;28;20040;-68
2022/05/02 05:06:56;;;;;;;20.67;14.43;;;3.80;80.30;;;;;;5061166;28;20045;-68
2022/05/02 05:09:22;;;;;;;22.90;14.60;;;4.00;80.60;;;;;;5066508;28;20052;-68
2022/05/02 05:11:55;;;;;;;20.33;13.93;;;4.20;80.50;;;;;;5053120;28;20802;-68
2022/05/02 05:18:00;;;;;;;18.60;13.13;;;4.90;80.90;;;;;;5074338;28;20044;-68
2022/05/02 05:20:44;;;;;;;20.33;13.75;;;5.50;79.90;;;;;;5058363;28;20120;-68
2022/05/02 05:24:00;;;;;;;18.33;13.70;;;5.70;79.30;;;;;;5070029;28;20051;-68
2022/05/02 05:26:48;;;;;;;18.65;13.93;;;5.70;79.40;;;;;;5028664;28;20814;-68
2022/05/02 05:29:19;;;;;;;21.23;13.95;;;5.70;79.90;;;;;;5063129;28;20048;-68
2022/05/02 05:32:01;;;;;;;18.63;13.13;;;5.80;80.10;;;;;;5053696;28;20044;-68
2022/05/02 05:34:33;;;;;;;18.77;12.60;;;5.80;80.50;;;;;;5082448;28;20085;-68
2022/05/02 05:37:33;;;;;;;20.80;12.45;;;5.90;80.60;;;;;;5044134;28;20044;-68
2022/05/02 05:40:14;;;;;;;17.60;12.60;;;6.00;80.80;;;;;;5067144;28;20039;-68
2022/05/02 05:43:01;;;;;;;18.65;13.05;;;6.10;80.90;;;;;;5066673;28;20051;-68
2022/05/02 05:45:54;;;;;;;17.00;11.30;;;6.10;80.90;;;;;;5067288;28;20531;-68
2022/05/02 05:48:50;;;;;;;15.45;11.57;;;6.20;80.90;;;;;;5060031;28;20127;-68
2022/05/02 05:51:22;;;;;;;16.17;11.65;;;6.30;81.00;;;;;;5062659;28;20037;-68
2022/05/02 05:54:15;;;;;;;13.32;10.73;;;6.40;81.00;;;;;;5074064;28;20068;-68
2022/05/02 05:57:05;;;;;;;15.82;10.90;;;6.50;81.20;;;;;;5060367;28;20086;-68
2022/05/02 06:00:12;;;;;;;15.02;10.93;;;6.70;81.20;;;;;;5065773;28;20167;-68
2022/05/02 06:02:47;;;;;;;15.13;10.68;;;6.80;80.90;;;;;;5038004;28;20075;-68
2022/05/02 06:05:13;;;;;;;13.75;10.48;;;7.00;81.10;;;;;;5061287;28;20044;-68
2022/05/02 06:07:39;;;;;;;14.25;9.95;;;7.20;81.00;;;;;;5065605;28;20436;-69
2022/05/02 06:10:07;;;;;;;14.52;10.43;;;7.50;80.70;;;;;;5062779;28;20123;-69
2022/05/02 06:12:34;;;;;;;15.02;9.75;;;7.80;80.30;;;;;;5065116;28;20094;-68
2022/05/02 06:20:34;;;;;;;11.55;9.73;;;9.40;75.20;;;;;;5065957;28;20076;-69
2022/05/02 06:23:02;;;;;;;13.70;9.05;;;10.00;73.90;;;;;;5049638;28;20048;-69
2022/05/02 06:25:29;;;;;;;12.35;9.70;;;10.80;72.00;;;;;;5067141;28;20098;-69
2022/05/02 06:27:56;;;;;;;10.55;8.90;;;11.60;69.80;;;;;;5067645;28;20048;-69
2022/05/02 06:30:23;;;;;;;12.15;9.10;;;12.40;66.70;;;;;;5032190;28;20044;-68
2022/05/02 06:32:51;;;;;;;12.15;8.63;;;12.90;64.70;;;;;;5059762;28;20082;-68
2022/05/02 06:35:18;;;;;;;10.70;8.40;;;13.30;63.10;;;;;;5047656;28;20405;-68
2022/05/02 06:37:54;;;;;;;12.68;9.15;;;13.50;60.00;;;;;;5061919;28;20040;-68
2022/05/02 06:40:30;;;;;;;9.82;7.68;;;13.60;60.60;;;;;;5066301;28;20131;-68
2022/05/02 06:43:06;;;;;;;12.98;8.35;;;13.60;60.10;;;;;;5081885;28;20493;-68
2022/05/02 06:46:25;;;;;;;10.52;7.68;;;13.70;59.90;;;;;;5064355;28;20094;-68
2022/05/02 06:48:56;;;;;;;9.38;8.07;;;13.70;59.20;;;;;;5019973;28;20050;-66
2022/05/02 06:51:31;;;;;;;9.82;8.10;;;13.70;59.10;;;;;;5050552;28;20127;-66
2022/05/02 06:54:15;;;;;;;;;;;13.50;58.90;;;;;;5047429;28;20405;-67
2022/05/02 06:56:50;;;;;;;10.50;7.40;;;13.00;60.10;;;;;;5062614;28;20417;-67
2022/05/02 06:59:37;;;;;;;8.88;7.55;;;12.30;61.40;;;;;;5043924;28;20036;-67
2022/05/02 07:02:09;;;;;;;12.23;8.02;;;11.70;63.30;;;;;;5058668;28;20044;-67
2022/05/02 07:04:53;;;;;;;13.65;7.90;;;11.30;64.40;;;;;;5089057;28;20083;-67
2022/05/02 07:07:35;;;;;;;9.15;7.38;;;11.10;64.80;;;;;;5045169;28;20101;-67
2022/05/02 07:10:05;;;;;;;8.18;6.43;;;10.90;65.40;;;;;;5048576;28;20532;-67
2022/05/02 07:12:34;;;;;;;8.50;5.97;;;10.80;65.80;;;;;;5080303;28;20043;-66
2022/05/02 07:15:12;;;;;;;7.90;6.53;;;10.70;65.20;;;;;;5047503;28;20048;-66
2022/05/02 07:17:44;;;;;;;7.60;6.40;;;10.70;65.30;;;;;;5044976;28;20072;-67
2022/05/02 07:20:31;;;;;;;11.05;6.47;;;10.70;65.20;;;;;;5058096;28;20041;-66
2022/05/02 07:23:29;;;;;;;9.57;5.60;;;10.80;64.70;;;;;;5047527;28;20052;-66
2022/05/02 07:26:06;;;;;;;8.02;6.32;;;10.80;64.50;;;;;;5090745;28;20041;-67
2022/05/02 07:28:44;;;;;;;10.05;6.93;;;10.90;64.30;;;;;;5047358;28;20095;-67
2022/05/02 07:31:13;;;;;;;8.85;6.95;;;10.90;64.60;;;;;;5066355;28;20075;-67
2022/05/02 07:33:40;;;;;;;10.25;7.57;;;11.00;64.80;;;;;;5065406;28;20045;-67
2022/05/02 07:36:06;;;;;;;13.30;7.50;;;11.10;64.60;;;;;;5047754;28;20036;-69
2022/05/02 07:38:34;;;;;;;11.07;7.43;;;11.20;64.50;;;;;;5063635;28;20037;-67
2022/05/02 07:41:23;;;;;;;12.98;7.47;;;11.20;64.50;;;;;;5064978;28;20047;-67
2022/05/02 07:43:53;;;;;;;9.75;7.13;;;11.30;64.70;;;;;;5065336;28;20123;-68
2022/05/02 07:46:25;;;;;;;10.35;7.38;;;11.40;64.50;;;;;;5046840;28;20044;-69
2022/05/02 07:48:53;;;;;;;10.05;7.05;;;11.40;64.10;;;;;;5064144;28;20535;-67
2022/05/02 07:51:19;;;;;;;11.23;7.47;;;11.50;64.50;;;;;;5063980;28;20512;-67
2022/05/02 07:53:46;;;;;;;11.77;7.20;;;11.60;64.40;;;;;;5050972;28;20091;-67
2022/05/02 07:56:13;;;;;;;11.25;7.30;;;11.60;63.90;;;;;;5067713;28;20048;-67
2022/05/02 07:58:45;;;;;;;11.48;6.68;;;11.70;63.40;;;;;;5064433;28;20516;-67
2022/05/02 08:01:16;;;;;;;10.68;6.50;;;11.70;62.50;;;;;;5063221;28;20047;-67
2022/05/02 08:03:42;;;;;;;8.80;6.75;;;11.80;62.70;;;;;;5065229;28;20052;-67
2022/05/02 08:06:37;;;;;;;10.43;6.87;;;11.80;62.30;;;;;;5059436;28;20044;-67
2022/05/02 08:09:25;;;;;;;9.55;6.80;;;12.00;62.30;;;;;;5043952;28;20040;-67
2022/05/02 08:12:30;;;;;;;8.60;6.78;;;12.10;61.90;;;;;;5067645;28;20052;-67
2022/05/02 08:15:03;;;;;;;10.52;6.97;;;12.20;61.60;;;;;;5064445;28;20033;-67
2022/05/02 08:17:53;;;;;;;9.13;6.80;;;12.30;61.50;;;;;;5096750;27;20032;-67
2022/05/02 08:20:40;;;;;;;7.63;6.70;;;12.40;60.70;;;;;;5048950;28;20131;-67
2022/05/02 08:29:50;;;;;;;9.02;6.22;;;12.60;60.10;;;;;;5063686;28;20531;-67
2022/05/02 08:32:34;;;;;;;9.35;5.78;;;12.80;60.40;;;;;;5059137;28;20055;-67
2022/05/02 08:35:31;;;;;;;9.27;6.57;;;12.90;59.60;;;;;;5077389;28;20047;-67
2022/05/02 08:38:10;;;;;;;12.07;6.97;;;13.00;59.20;;;;;;5061867;28;20302;-67
2022/05/02 08:41:19;;;;;;;7.57;6.43;;;13.20;59.20;;;;;;5057654;28;20314;-67
2022/05/02 08:44:20;;;;;;;9.20;6.93;;;13.30;59.00;;;;;;5075162;28;20282;-67
2022/05/02 08:46:46;;;;;;;7.53;6.70;;;13.40;58.70;;;;;;5093294;27;20389;-67
2022/05/02 08:49:49;;;;;;;9.53;6.63;;;13.50;58.50;;;;;;5047242;28;21154;-67
2022/05/02 08:52:41;;;;;;;8.63;6.10;;;13.50;57.70;;;;;;5058954;28;20131;-67
2022/05/02 08:55:20;;;;;;;8.67;6.13;;;13.60;57.80;;;;;;5053669;28;20296;-67
2022/05/02 08:58:11;;;;;;;10.93;6.23;;;13.60;58.20;;;;;;5064170;28;21515;-67
2022/05/02 09:01:04;;;;;;;7.73;6.33;;;13.70;57.50;;;;;;5065311;28;20422;-67
2022/05/02 09:04:04;;;;;;;13.00;6.87;;;13.80;57.50;;;;;;5056950;28;20290;-67
2022/05/02 09:06:58;;;;;;;8.50;6.27;;;13.90;56.50;;;;;;5088491;28;20298;-67
2022/05/02 09:09:59;;;;;;;9.23;6.60;;;13.90;56.60;;;;;;5051752;28;20369;-67
2022/05/02 09:12:40;;;;;;;9.13;6.53;;;14.00;56.70;;;;;;5086056;28;20359;-67
2022/05/02 09:15:10;;;;;;;7.70;6.03;;;14.20;56.90;;;;;;5050048;28;20326;-67
2022/05/02 09:18:03;;;;;;;9.50;7.37;;;14.30;56.50;;;;;;5098051;27;20291;-67
2022/05/02 09:20:38;;;;;;;9.33;6.23;;;14.50;56.10;;;;;;5065502;28;20309;-67
2022/05/02 09:23:11;;;;;;;9.60;6.32;;;14.60;56.30;;;;;;5065982;28;20714;-68
2022/05/02 09:26:02;;;;;;;9.57;6.47;;;14.70;56.30;;;;;;5099862;28;20416;-67
2022/05/02 09:28:42;;;;;;;8.90;6.37;;;14.80;56.10;;;;;;5056260;28;20345;-67
2022/05/02 09:31:19;;;;;;;7.90;6.90;;;15.00;55.10;;;;;;5044236;28;21022;-67
2022/05/02 09:34:16;;;;;;;7.80;5.63;;;15.10;55.10;;;;;;5050442;28;20326;-67
2022/05/02 09:37:02;;;;;;;8.80;6.53;;;15.10;53.00;;;;;;5098078;28;20365;-67
2022/05/02 09:39:52;;;;;;;7.53;6.07;;;15.10;53.10;;;;;;5063596;28;20318;-68
2022/05/02 09:42:55;;;;;;;7.63;6.30;;;15.10;53.70;;;;;;5050719;28;20411;-68
2022/05/02 09:51:35;;;;;;;7.27;6.00;;;15.30;53.00;;;;;;5066465;28;20297;-67
2022/05/02 09:57:30;;;;;;;8.73;5.40;;;15.50;52.90;;;;;;5071616;28;20377;-68
2022/05/02 10:02:48;;;;;;;7.40;5.93;;;15.70;52.70;;;;;;5099509;27;20315;-68
2022/05/02 10:05:52;;;;;;;8.00;5.23;;;15.80;51.00;;;;;;5054207;28;20420;-68
2022/05/02 10:08:48;;;;;;;7.63;5.30;;;15.80;49.40;;;;;;4997655;28;20349;-69
2022/05/02 10:11:25;;;;;;;;;;;15.70;51.40;;;;;;5058755;28;20306;-69
2022/05/02 10:13:54;;;;;;;11.00;5.97;;;15.70;51.20;;;;;;5093936;27;19955;-69
2022/05/02 10:16:31;;;;;;;6.27;4.93;;;15.90;50.70;;;;;;5061448;28;20789;-68
2022/05/02 10:19:18;;;;;;;8.10;4.77;;;15.90;50.60;;;;;;5048369;28;20283;-68
2022/05/02 10:22:17;;;;;;;6.63;4.63;;;16.10;49.80;;;;;;5099748;28;20275;-69
2022/05/02 10:25:13;;;;;;;9.03;5.17;;;16.20;47.80;;;;;;5063315;28;20280;-68
2022/05/02 10:28:04;;;;;;;6.07;4.38;;;16.20;47.70;;;;;;5013982;28;20304;-68
2022/05/02 10:30:53;;;;;;;6.40;4.97;;;16.30;48.10;;;;;;5063267;28;20093;-68
2022/05/02 10:33:34;;;;;;;9.17;4.97;;;16.30;47.20;;;;;;5070103;28;20298;-69
2022/05/02 10:36:04;;;;;;;6.33;4.27;;;16.30;48.10;;;;;;5049513;28;20283;-69
2022/05/02 10:38:34;;;;;;;4.57;4.07;;;16.30;47.30;;;;;;5065413;28;20393;-69
2022/05/02 10:41:27;;;;;;;6.53;4.87;;;16.40;47.70;;;;;;5074334;28;20298;-69
2022/05/02 10:44:17;;;;;;;3.77;3.23;;;16.40;46.50;;;;;;5042369;28;20806;-69
2022/05/02 10:46:46;;;;;;;4.67;3.80;;;16.50;46.30;;;;;;5092843;28;20505;-69
2022/05/02 10:49:27;;;;;;;3.67;3.10;;;16.70;46.30;;;;;;5078677;28;20366;-69
2022/05/02 10:52:07;;;;;;;6.27;4.00;;;16.70;45.10;;;;;;5063619;28;20341;-69
2022/05/02 10:54:49;;;;;;;5.47;4.37;;;16.60;45.90;;;;;;5101128;27;20291;-68
2022/05/02 10:57:45;;;;;;;5.40;4.27;;;16.80;45.80;;;;;;5062301;28;20318;-68
2022/05/02 11:00:12;;;;;;;5.25;4.75;;;16.90;46.60;;;;;;5056381;28;20679;-69
2022/05/02 11:03:00;;;;;;;5.73;4.27;;;17.00;46.50;;;;;;5059962;28;20051;-69
2022/05/02 11:05:31;;;;;;;6.80;4.50;;;17.10;47.00;;;;;;5065340;28;20298;-69
2022/05/02 11:08:07;;;;;;;6.97;4.50;;;17.00;46.30;;;;;;5062574;28;20293;-69
2022/05/02 11:10:50;;;;;;;6.73;4.53;;;17.20;45.80;;;;;;5063304;28;20496;-68
2022/05/02 11:13:27;;;;;;;6.00;4.40;;;17.20;46.90;;;;;;5057780;28;20313;-69
2022/05/02 11:16:08;;;;;;;5.27;4.23;;;17.20;46.10;;;;;;5073133;28;20274;-69
2022/05/02 11:21:44;;;;;;;6.77;4.30;;;17.50;47.00;;;;;;5082037;28;20382;-69
2022/05/02 11:24:38;;;;;;;8.40;4.70;;;17.70;46.60;;;;;;5064453;28;20767;-69
2022/05/02 11:27:25;;;;;;;5.50;4.90;;;17.80;45.40;;;;;;5094696;28;20306;-69
2022/05/02 11:30:08;;;;;;;7.67;4.30;;;17.80;46.60;;;;;;5060703;28;20734;-69
2022/05/02 11:32:39;;;;;;;6.00;4.40;;;17.90;44.40;;;;;;5060885;28;20343;-69
2022/05/02 11:35:33;;;;;;;9.50;4.30;;;17.90;44.70;;;;;;5060824;28;20320;-69
2022/05/02 11:38:18;;;;;;;5.00;4.10;;;18.00;45.80;;;;;;5066981;28;20303;-69
2022/05/02 11:40:50;;;;;;;5.88;4.03;;;18.20;45.80;;;;;;5070917;28;20303;-69
2022/05/02 11:43:21;;;;;;;5.23;3.90;;;18.30;44.70;;;;;;5069608;28;20033;-68
2022/05/02 11:46:04;;;;;;;4.97;4.17;;;18.30;44.60;;;;;;5050474;28;20299;-69
2022/05/02 11:49:02;;;;;;;5.43;3.23;;;18.40;43.10;;;;;;5067926;28;20808;-68
2022/05/02 11:51:50;;;;;;;5.40;3.47;;;18.40;42.20;;;;;;5073640;28;20310;-69
2022/05/02 11:54:28;;;;;;;4.57;3.90;;;18.40;42.60;;;;;;5106454;27;20305;-69
2022/05/02 11:57:04;;;;;;;4.77;3.20;;;17.80;40.40;;;;;;5074428;28;20294;-69
2022/05/02 11:59:57;;;;;;;66.57;10.20;;;17.80;42.00;;;;;;5102415;27;20313;-68
2022/05/02 12:02:26;;;;;;;21.27;4.77;;;17.90;43.30;;;;;;5074082;28;20634;-68
2022/05/02 12:04:56;;;;;;;7.90;3.73;;;18.10;42.90;;;;;;5077743;28;20285;-68
2022/05/02 12:07:30;;;;;;;6.17;3.97;;;18.20;42.50;;;;;;5042704;28;20281;-68
2022/05/02 12:10:06;;;;;;;5.57;3.63;;;18.30;41.40;;;;;;5079777;28;20289;-68
2022/05/02 12:12:33;;;;;;;6.37;3.90;;;18.40;42.20;;;;;;5062930;28;20295;-68
2022/05/02 12:15:12;;;;;;;5.67;4.00;;;18.30;42.50;;;;;;5082674;28;20801;-68
2022/05/02 12:18:07;;;;;;;5.33;3.87;;;18.40;41.80;;;;;;5108825;27;20306;-68
2022/05/02 12:20:42;;;;;;;8.17;4.67;;;18.50;42.60;;;;;;5071681;28;20365;-68
2022/05/02 12:23:18;;;;;;;5.63;4.18;;;18.60;43.20;;;;;;5078159;28;20290;-68
2022/05/02 12:26:12;;;;;;;6.63;4.23;;;18.70;42.60;;;;;;5068773;28;20124;-68
2022/05/02 12:28:43;;;;;;;3.80;3.40;;;18.80;42.50;;;;;;5084710;28;20290;-68
2022/05/02 12:31:27;;;;;;;6.90;3.93;;;18.80;43.10;;;;;;5051920;28;20979;-68
2022/05/02 12:34:02;;;;;;;4.13;3.50;;;18.90;43.00;;;;;;5067761;28;20306;-68
2022/05/02 12:36:37;;;;;;;;;;;19.20;42.10;;;;;;5051198;28;20342;-69
2022/05/02 12:39:05;;;;;;;4.15;3.70;;;19.20;41.40;;;;;;5073988;28;19920;-68
2022/05/02 12:41:46;;;;;;;3.93;3.13;;;19.20;41.90;;;;;;5077096;28;20032;-68
2022/05/02 12:44:13;;;;;;;6.50;4.17;;;19.30;41.80;;;;;;5065266;28;20310;-68
2022/05/02 12:46:43;;;;;;;6.17;3.60;;;19.20;41.50;;;;;;5077287;28;20294;-68
2022/05/02 12:49:41;;;;;;;6.17;3.40;;;19.10;41.80;;;;;;5057248;28;20295;-68
2022/05/02 12:52:07;;;;;;;5.20;3.50;;;18.90;41.50;;;;;;5061776;28;20314;-69
2022/05/02 12:54:34;;;;;;;5.23;3.57;;;18.90;42.40;;;;;;5049299;28;20310;-68
2022/05/02 13:02:39;;;;;;;5.67;3.30;;;19.20;41.80;;;;;;5065412;28;20294;-68
2022/05/02 13:05:16;;;;;;;7.13;4.03;;;19.10;42.00;;;;;;5047709;28;20314;-68
2022/05/02 13:07:50;;;;;;;5.87;3.97;;;18.90;42.10;;;;;;5084593;28;20838;-69
2022/05/02 13:10:27;;;;;;;4.85;3.55;;;18.80;42.80;;;;;;5067484;28;20890;-68
2022/05/02 13:13:05;;;;;;;6.90;3.57;;;18.90;43.60;;;;;;5074608;28;20476;-68
2022/05/02 13:15:36;;;;;;;4.80;4.17;;;19.00;43.40;;;;;;5063247;28;20275;-68
2022/05/02 13:18:05;;;;;;;4.33;3.90;;;19.00;42.90;;;;;;5063439;28;20275;-68
2022/05/02 13:20:32;;;;;;;6.97;4.47;;;18.90;43.40;;;;;;5069953;28;20298;-68
2022/05/02 13:23:13;;;;;;;4.87;3.90;;;19.00;43.60;;;;;;5059003;28;20316;-68
2022/05/02 13:26:00;;;;;;;6.73;3.67;;;19.20;42.50;;;;;;5049110;28;20704;-68
2022/05/02 13:28:51;;;;;;;5.23;3.87;;;19.40;42.40;;;;;;5063707;28;20779;-68
2022/05/02 13:31:35;;;;;;;5.43;4.10;;;19.30;42.80;;;;;;5034231;28;20282;-68
2022/05/02 13:34:05;;;;;;;6.33;3.83;;;19.30;43.50;;;;;;5066779;28;20374;-68
2022/05/02 13:36:43;;;;;;;5.57;4.03;;;19.10;43.30;;;;;;5068008;28;20310;-68
2022/05/02 13:39:20;;;;;;;5.37;3.87;;;18.80;42.90;;;;;;5066051;28;20340;-69
2022/05/02 13:41:58;;;;;;;9.47;3.77;;;18.40;43.70;;;;;;5067293;28;20289;-68
2022/05/02 13:44:37;;;;;;;6.57;4.37;;;18.30;43.90;;;;;;5066056;28;20287;-68
2022/05/02 13:47:11;;;;;;;7.10;4.40;;;18.30;44.40;;;;;;5066455;28;20305;-68
2022/05/02 13:49:57;;;;;;;6.37;3.77;;;18.50;44.40;;;;;;5066963;28;20817;-68
2022/05/02 13:52:29;;;;;;;6.10;4.10;;;18.80;44.70;;;;;;5067485;28;20310;-68
2022/05/02 13:54:55;;;;;;;6.27;3.47;;;18.80;44.20;;;;;;5065134;28;20324;-68
2022/05/02 13:57:44;;;;;;;5.93;4.13;;;18.60;43.70;;;;;;5069250;28;20803;-68
2022/05/02 14:03:05;;;;;;;5.47;4.20;;;18.10;45.10;;;;;;5066785;28;20771;-68
2022/05/02 14:08:26;;;;;;;6.00;2.90;;;18.60;44.70;;;;;;5066492;28;20113;-68